Time;durP1;ratioP1;P1;durP2;ratioP2;P2;SDS_P1;SDS_P2;PMS_P1;PMS_P2;Temp;Humidity;BMP_temperature;BMP_pressure;BME280_temperature;BME280_humidity;BME280_pressure;Samples;Min_cycle;Max_cycle;Signal;HPM_P1;HPM_P2
2022/05/27 00:01:36;;;;;;;29.55;7.85;;;;;;;15.07;100.00;101993.19;10417639;28;20041;-79
2022/05/27 00:06:37;;;;;;;16.70;6.28;;;;;;;14.99;100.00;102001.53;10416845;28;20033;-79
2022/05/27 00:11:37;;;;;;;10.65;5.15;;;;;;;14.71;100.00;101998.81;10400884;28;20026;-79
2022/05/27 00:16:38;;;;;;;10.27;3.20;;;;;;;14.50;100.00;101996.94;10416024;28;20037;-78
2022/05/27 00:21:38;;;;;;;15.30;3.83;;;;;;;14.35;100.00;102003.31;10417826;28;20040;-78
2022/05/27 00:26:38;;;;;;;10.63;3.90;;;;;;;14.25;100.00;101996.50;10416964;28;20140;-78
2022/05/27 00:31:39;;;;;;;17.08;5.22;;;;;;;14.28;100.00;101991.50;10418037;28;20040;-78
2022/05/27 00:36:39;;;;;;;22.17;7.03;;;;;;;14.35;100.00;101991.56;10417275;28;20065;-79
2022/05/27 00:41:43;;;;;;;29.70;8.63;;;;;;;14.40;100.00;101989.13;10416148;28;20045;-78
2022/05/27 00:46:43;;;;;;;11.77;7.00;;;;;;;14.47;100.00;101991.88;10416459;28;20043;-78
2022/05/27 00:52:05;;;;;;;20.23;8.35;;;;;;;14.48;100.00;101977.22;10398591;28;20029;-77
2022/05/27 00:57:10;;;;;;;14.27;6.20;;;;;;;14.50;100.00;101975.97;10417097;28;20392;-77
2022/05/27 01:02:11;;;;;;;14.15;6.90;;;;;;;14.48;100.00;101986.22;10416745;28;20044;-78
2022/05/27 01:07:11;;;;;;;28.98;6.00;;;;;;;14.46;100.00;101971.97;10417244;28;20044;-78
2022/05/27 01:12:30;;;;;;;18.63;6.47;;;;;;;14.46;100.00;101971.97;10416871;28;20510;-77
2022/05/27 01:17:33;;;;;;;26.08;8.30;;;;;;;14.46;100.00;101977.44;10419432;28;20461;-77
2022/05/27 01:22:52;;;;;;;20.02;6.43;;;;;;;14.50;100.00;101966.97;10423947;28;20041;-77
2022/05/27 01:28:16;;;;;;;10.70;5.88;;;;;;;14.39;100.00;101965.63;10425076;28;20480;-77
2022/05/27 01:33:24;;;;;;;28.63;6.90;;;;;;;14.39;100.00;101979.25;10426604;28;20057;-77
2022/05/27 01:38:47;;;;;;;15.93;5.68;;;;;;;14.41;100.00;101978.00;10369723;28;20046;-78
2022/05/27 01:43:55;;;;;;;12.13;5.95;;;;;;;14.40;100.00;101972.75;10386845;28;20049;-77
2022/05/27 01:49:07;;;;;;;26.83;5.85;;;;;;;14.40;100.00;101965.41;10387833;28;20123;-77
2022/05/27 01:54:32;;;;;;;18.13;6.18;;;;;;;14.29;100.00;101974.13;10389310;28;20030;-78
2022/05/27 01:59:39;;;;;;;19.58;4.75;;;;;;;14.14;100.00;101965.19;10352345;28;20038;-78
2022/05/27 02:04:44;;;;;;;14.30;6.20;;;;;;;13.99;100.00;101957.06;10371572;28;20052;-77
2022/05/27 02:09:47;;;;;;;11.48;5.57;;;;;;;13.97;100.00;101964.59;10348795;28;20038;-78
2022/05/27 02:14:51;;;;;;;25.27;5.15;;;;;;;14.06;100.00;101970.75;10382710;28;20029;-77
2022/05/27 02:19:59;;;;;;;17.58;6.95;;;;;;;14.08;100.00;101961.38;10369003;28;20030;-78
2022/05/27 02:25:06;;;;;;;26.73;7.07;;;;;;;13.99;100.00;101972.59;10368972;28;20425;-78
2022/05/27 02:30:08;;;;;;;;;;;;;;;13.89;100.00;101964.72;10387146;28;20117;-77
2022/05/27 02:35:21;;;;;;;13.90;6.20;;;;;;;13.76;100.00;101959.16;10403375;28;19917;-77
2022/05/27 02:40:44;;;;;;;12.52;4.38;;;;;;;13.76;100.00;101964.59;10406679;28;20056;-77
2022/05/27 02:46:08;;;;;;;22.65;5.88;;;;;;;13.79;100.00;101962.31;10392455;28;20037;-77
2022/05/27 02:51:35;;;;;;;6.43;3.97;;;;;;;13.80;100.00;101969.44;10426111;28;20044;-77
2022/05/27 02:56:49;;;;;;;14.63;5.23;;;;;;;13.69;100.00;101973.53;10410246;28;20033;-77
2022/05/27 03:01:50;;;;;;;25.60;5.88;;;;;;;13.75;100.00;101974.63;10413660;28;20026;-78
2022/05/27 03:07:15;;;;;;;7.50;4.05;;;;;;;13.82;100.00;101972.84;10430959;28;20044;-77
2022/05/27 03:12:37;;;;;;;11.13;5.47;;;;;;;13.92;100.00;101975.25;10422858;28;20022;-77
2022/05/27 03:17:53;;;;;;;11.35;5.57;;;;;;;13.83;100.00;101969.06;10423807;28;20025;-78
2022/05/27 03:23:18;;;;;;;20.13;5.90;;;;;;;13.90;100.00;101974.56;10423978;28;20469;-78
2022/05/27 03:28:43;;;;;;;18.40;4.47;;;;;;;14.00;100.00;101980.53;10422449;28;20064;-78
2022/05/27 03:33:58;;;;;;;16.58;4.38;;;;;;;14.04;100.00;101973.69;10423432;28;20076;-77
2022/05/27 03:39:18;;;;;;;15.02;5.22;;;;;;;13.99;100.00;101981.59;10422635;28;20036;-77
2022/05/27 03:44:19;;;;;;;8.73;4.68;;;;;;;13.84;100.00;101975.34;10405229;28;20056;-77
2022/05/27 03:49:20;;;;;;;9.98;3.83;;;;;;;13.84;100.00;101991.69;10404697;28;20088;-77
2022/05/27 03:54:21;;;;;;;13.02;4.57;;;;;;;13.90;100.00;101997.19;10419975;28;20373;-77
2022/05/27 03:59:22;;;;;;;3.88;3.53;;;;;;;13.93;100.00;101995.97;10420883;28;20045;-77
2022/05/27 04:04:25;;;;;;;10.13;3.35;;;;;;;13.92;100.00;101995.13;10403867;28;20040;-77
2022/05/27 04:09:26;;;;;;;6.95;3.65;;;;;;;13.96;100.00;101985.53;10420840;28;20034;-76
2022/05/27 04:14:26;;;;;;;12.38;4.05;;;;;;;13.87;100.00;102000.31;10400635;28;20029;-77
2022/05/27 04:19:27;;;;;;;12.60;3.75;;;;;;;13.90;100.00;101996.34;10416333;28;20045;-76
2022/05/27 04:24:27;;;;;;;11.23;3.20;;;;;;;13.85;100.00;101993.38;10417403;28;20041;-77
2022/05/27 04:29:27;;;;;;;13.90;4.20;;;;;;;13.90;100.00;101999.09;10418125;28;20033;-76
2022/05/27 04:34:28;;;;;;;9.30;4.15;;;;;;;14.16;100.00;101996.63;10418081;28;20053;-76
2022/05/27 04:39:28;;;;;;;8.73;4.20;;;;;;;14.38;100.00;102002.91;10419078;28;20479;-77
2022/05/27 04:44:28;;;;;;;7.68;3.83;;;;;;;14.60;100.00;102000.22;10416575;28;20044;-77
2022/05/27 04:54:48;;;;;;;14.80;3.80;;;;;;;14.59;100.00;102007.53;10417251;28;20033;-76
2022/05/27 04:59:52;;;;;;;14.98;4.20;;;;;;;14.65;100.00;102014.94;10416792;28;20034;-77
2022/05/27 05:04:52;;;;;;;4.22;3.30;;;;;;;15.07;100.00;102021.31;10418403;28;20038;-76
2022/05/27 05:09:52;;;;;;;8.98;3.13;;;;;;;15.33;100.00;102020.63;10404559;28;20034;-76
2022/05/27 05:14:53;;;;;;;10.00;4.18;;;;;;;15.29;100.00;102037.63;10399660;28;20041;-76
2022/05/27 05:19:55;;;;;;;14.40;4.32;;;;;;;15.04;100.00;102026.34;10415388;28;20033;-76
2022/05/27 05:24:55;;;;;;;8.98;2.70;;;;;;;15.22;100.00;102028.53;10416447;28;20045;-76
2022/05/27 05:29:56;;;;;;;12.10;2.72;;;;;;;15.49;100.00;102044.03;10416040;28;20060;-76
2022/05/27 05:34:58;;;;;;;7.35;3.58;;;;;;;16.37;100.00;102038.69;10398049;28;20132;-77
2022/05/27 05:39:59;;;;;;;10.35;3.40;;;;;;;16.55;100.00;102050.88;10415388;28;20537;-77
2022/05/27 05:45:00;;;;;;;4.10;2.42;;;;;;;17.02;100.00;102051.75;10416164;28;20056;-77
2022/05/27 05:50:01;;;;;;;5.03;2.83;;;;;;;16.34;100.00;102063.69;10413341;28;20067;-77
2022/05/27 05:55:02;;;;;;;4.70;2.55;;;;;;;15.89;100.00;102057.03;10398023;28;20029;-77
2022/05/27 06:00:03;;;;;;;10.25;3.33;;;;;;;15.69;100.00;102056.97;10415271;28;20040;-77
2022/05/27 06:05:04;;;;;;;2.97;2.40;;;;;;;15.41;100.00;102062.44;10415234;28;20037;-76
2022/05/27 06:10:05;;;;;;;9.13;3.58;;;;;;;15.39;100.00;102073.56;10421200;28;20038;-76
2022/05/27 06:15:07;;;;;;;7.88;3.33;;;;;;;15.58;100.00;102072.84;10404651;28;20074;-76
2022/05/27 06:20:09;;;;;;;19.17;5.72;;;;;;;16.24;100.00;102068.69;10419963;28;20033;-76
2022/05/27 06:25:09;;;;;;;12.43;4.95;;;;;;;16.63;100.00;102080.78;10421378;28;20029;-75
2022/05/27 06:35:29;;;;;;;15.70;3.85;;;;;;;18.01;100.00;102089.84;10422652;28;20053;-76
2022/05/27 06:40:29;;;;;;;9.02;2.72;;;;;;;17.74;100.00;102091.84;10419772;28;20046;-75
2022/05/27 06:45:30;;;;;;;9.25;3.00;;;;;;;18.03;100.00;102108.81;10420899;28;20072;-75
2022/05/27 06:50:31;;;;;;;8.75;3.35;;;;;;;17.64;100.00;102103.25;10419847;28;20046;-76
2022/05/27 06:55:32;;;;;;;19.50;3.83;;;;;;;17.51;100.00;102113.38;10402449;28;20037;-76
2022/05/27 07:00:32;;;;;;;18.35;4.28;;;;;;;17.40;100.00;102123.94;10419785;28;20033;-76
2022/05/27 07:05:33;;;;;;;18.73;3.50;;;;;;;18.77;100.00;102121.91;10420344;28;20065;-76
2022/05/27 07:10:33;;;;;;;7.22;2.70;;;;;;;18.93;100.00;102116.94;10420248;28;20469;-76
2022/05/27 07:15:33;;;;;;;8.60;3.03;;;;;;;18.58;100.00;102115.47;10402323;28;20033;-76
2022/05/27 07:20:37;;;;;;;9.27;4.15;;;;;;;17.89;98.18;102130.78;10385545;28;20044;-76
2022/05/27 07:25:37;;;;;;;6.57;3.63;;;;;;;18.04;100.00;102121.47;10420057;28;20069;-76
2022/05/27 07:30:38;;;;;;;16.17;2.58;;;;;;;17.51;94.30;102133.38;10418932;28;20061;-76
2022/05/27 07:35:39;;;;;;;9.00;3.00;;;;;;;17.26;95.67;102133.22;10419704;28;20408;-75
2022/05/27 07:40:39;;;;;;;8.65;3.50;;;;;;;17.73;98.76;102144.09;10417707;28;20116;-76
2022/05/27 07:45:41;;;;;;;6.45;2.78;;;;;;;18.56;93.06;102141.44;10417810;28;20124;-75
2022/05/27 07:50:41;;;;;;;9.30;3.47;;;;;;;19.09;81.35;102152.06;10418309;28;20089;-75
2022/05/27 07:55:42;;;;;;;8.63;2.95;;;;;;;20.04;77.79;102146.28;10399633;28;20493;-76
2022/05/27 08:00:42;;;;;;;6.43;2.90;;;;;;;19.96;81.31;102155.66;10383649;28;20120;-76
2022/05/27 08:05:43;;;;;;;12.57;2.65;;;;;;;19.54;81.43;102164.78;10418213;28;20068;-76
2022/05/27 08:10:43;;;;;;;16.27;4.28;;;;;;;19.95;79.68;102164.16;10418242;28;20029;-77
2022/05/27 08:15:44;;;;;;;3.40;3.08;;;;;;;21.31;65.07;102143.34;10418050;28;20487;-77
2022/05/27 08:20:44;;;;;;;10.23;3.05;;;;;;;22.02;61.66;102151.56;10417306;28;20033;-77
2022/05/27 08:25:44;;;;;;;10.73;2.42;;;;;;;22.27;60.50;102151.25;10417422;28;20038;-76
2022/05/27 08:30:45;;;;;;;5.15;3.38;;;;;;;22.03;60.26;102156.81;10416898;28;20025;-77
2022/05/27 08:41:21;;;;;;;11.32;3.33;;;;;;;22.79;48.59;102164.97;10416475;28;20445;-77
2022/05/27 08:46:29;;;;;;;8.77;3.08;;;;;;;23.30;56.12;102187.13;10415491;28;20033;-77
2022/05/27 08:51:49;;;;;;;13.38;2.97;;;;;;;23.70;54.57;102186.94;10398335;28;20045;-77
2022/05/27 09:02:23;;;;;;;11.38;4.32;;;;;;;23.19;51.36;102197.16;10400696;28;20045;-77
2022/05/27 09:07:31;;;;;;;10.70;3.38;;;;;;;21.56;55.33;102191.88;10415520;28;20525;-76
2022/05/27 09:13:17;;;;;;;5.03;2.55;;;;;;;20.90;55.28;102191.06;10398986;28;20033;-76
2022/05/27 09:18:42;;;;;;;12.15;4.00;;;;;;;20.28;58.99;102209.66;10384861;28;20044;-76
2022/05/27 09:24:00;;;;;;;7.38;3.92;;;;;;;19.74;60.67;102215.72;10380818;28;20038;-76
2022/05/27 09:29:22;;;;;;;8.90;4.13;;;;;;;19.20;61.34;102228.22;10415202;28;20064;-78
2022/05/27 09:34:26;;;;;;;5.85;3.35;;;;;;;20.75;56.03;102210.75;10413476;28;20110;-76
2022/05/27 09:39:27;;;;;;;11.73;4.20;;;;;;;21.59;55.02;102206.03;10397364;28;20388;-76
2022/05/27 09:44:48;;;;;;;8.40;3.30;;;;;;;19.85;57.93;102208.66;10420199;28;20045;-75
2022/05/27 09:49:53;;;;;;;13.07;3.97;;;;;;;19.09;57.45;102239.09;10423823;28;20032;-76
2022/05/27 09:54:59;;;;;;;6.93;3.70;;;;;;;19.62;55.22;102244.16;10404945;28;20033;-75
2022/05/27 10:00:02;;;;;;;9.18;3.55;;;;;;;20.34;52.19;102225.25;10407714;28;20112;-75
2022/05/27 10:05:16;;;;;;;7.45;4.35;;;;;;;19.49;56.19;102250.59;10422116;28;20035;-76
2022/05/27 10:10:31;;;;;;;10.32;4.70;;;;;;;19.90;53.02;102238.22;10422356;28;20026;-75
2022/05/27 10:15:34;;;;;;;13.15;4.65;;;;;;;18.98;53.04;102246.13;10406919;28;20033;-76
2022/05/27 10:20:36;;;;;;;9.90;3.88;;;;;;;20.06;50.69;102243.09;10423000;28;20068;-76
2022/05/27 10:25:42;;;;;;;6.95;4.03;;;;;;;21.99;49.22;102246.66;10405009;28;20037;-76
2022/05/27 10:30:57;;;;;;;11.70;4.35;;;;;;;23.29;50.58;102233.25;10420380;28;20469;-77
2022/05/27 10:35:58;;;;;;;5.97;3.47;;;;;;;23.87;43.07;102247.78;10420469;28;20472;-78
2022/05/27 10:41:15;;;;;;;12.65;3.80;;;;;;;24.16;41.38;102254.00;10405343;28;20120;-77
2022/05/27 10:46:18;;;;;;;10.13;2.58;;;;;;;23.94;42.42;102242.88;10404246;28;20528;-77
2022/05/27 10:51:48;;;;;;;3.58;2.75;;;;;;;24.31;41.33;102253.34;10402450;28;20416;-74
2022/05/27 11:02:29;;;;;;;7.28;3.22;;;;;;;24.67;36.34;102257.44;10405189;28;20389;-72
2022/05/27 11:07:47;;;;;;;7.68;3.40;;;;;;;24.23;35.88;102260.16;10419932;28;20087;-72
2022/05/27 11:18:44;;;;;;;7.88;2.65;;;;;;;25.25;37.52;102263.31;10418999;28;20049;-72
2022/05/27 11:24:15;;;;;;;3.22;2.67;;;;;;;25.35;37.42;102282.00;10401564;28;20416;-73
2022/05/27 11:29:40;;;;;;;5.70;2.92;;;;;;;25.31;38.06;102278.09;10420054;28;20041;-73
2022/05/27 11:35:03;;;;;;;6.32;2.80;;;;;;;25.04;38.14;102281.66;10418547;28;20088;-72
2022/05/27 11:40:17;;;;;;;3.13;2.13;;;;;;;24.12;38.17;102277.72;10414849;28;20050;-72
2022/05/27 11:45:28;;;;;;;6.75;3.83;;;;;;;23.39;37.71;102279.63;10418452;28;20033;-72
2022/05/27 11:50:51;;;;;;;6.07;3.80;;;;;;;22.74;36.85;102286.34;10400844;28;20057;-72
2022/05/27 11:56:06;;;;;;;16.50;2.95;;;;;;;21.75;39.25;102284.41;10416304;28;20088;-70
2022/05/27 12:01:52;;;;;;;8.55;2.80;;;;;;;22.19;41.55;102281.34;10418349;28;20397;-71
2022/05/27 12:07:11;;;;;;;6.63;2.95;;;;;;;23.65;38.59;102283.63;10394671;28;20037;-71
2022/05/27 12:12:14;;;;;;;7.68;2.47;;;;;;;21.85;40.61;102288.50;10418536;28;20036;-73
2022/05/27 12:17:20;;;;;;;2.97;2.67;;;;;;;21.79;38.95;102290.28;10400315;28;20095;-75
2022/05/27 12:22:27;;;;;;;3.83;2.80;;;;;;;21.80;41.47;102294.75;10383395;28;20458;-74
2022/05/27 12:27:27;;;;;;;4.40;2.15;;;;;;;22.05;39.36;102300.03;10417191;28;20048;-77
2022/05/27 12:32:28;;;;;;;6.85;2.78;;;;;;;22.79;41.07;102300.28;10415931;28;20124;-78
2022/05/27 12:37:29;;;;;;;7.85;2.63;;;;;;;24.02;37.65;102299.72;10382314;28;20141;-78
2022/05/27 12:42:34;;;;;;;7.18;3.33;;;;;;;23.94;37.66;102306.53;10400787;28;20432;-77
2022/05/27 12:47:35;;;;;;;12.63;3.78;;;;;;;22.10;40.15;102315.84;10416146;28;20040;-74
2022/05/27 12:52:36;;;;;;;5.13;2.30;;;;;;;21.57;40.16;102314.88;10397918;28;20116;-73
2022/05/27 13:02:56;;;;;;;1.48;1.38;;;;;;;20.19;43.87;102322.72;10414432;28;20132;-75
2022/05/27 13:08:09;;;;;;;14.20;3.42;;;;;;;20.95;42.89;102315.09;10398783;28;20109;-77
2022/05/27 13:13:12;;;;;;;8.73;2.95;;;;;;;20.99;41.76;102320.97;10415495;28;20069;-77
2022/05/27 13:18:26;;;;;;;13.35;3.35;;;;;;;20.44;41.43;102321.84;10397504;28;20037;-77
2022/05/27 13:23:27;;;;;;;3.03;2.75;;;;;;;21.02;42.04;102320.50;10399071;28;20034;-77
2022/05/27 13:28:39;;;;;;;2.38;1.92;;;;;;;21.53;42.02;102325.50;10397860;28;20022;-77
2022/05/27 13:33:48;;;;;;;9.32;2.70;;;;;;;21.36;42.09;102319.00;10412867;28;20062;-77
2022/05/27 13:38:59;;;;;;;7.57;3.28;;;;;;;21.56;43.74;102319.50;10398417;28;20038;-76
2022/05/27 13:43:59;;;;;;;7.80;3.30;;;;;;;22.08;39.51;102323.53;10397366;28;20421;-76
2022/05/27 13:49:24;;;;;;;8.65;3.47;;;;;;;20.75;43.76;102326.38;10416869;28;20048;-79
2022/05/27 13:54:33;;;;;;;7.13;3.05;;;;;;;20.53;45.88;102336.16;10398305;28;20037;-78
2022/05/27 13:59:42;;;;;;;4.97;2.13;;;;;;;21.11;45.13;102330.97;10415270;28;20037;-77
2022/05/27 14:04:52;;;;;;;6.68;2.67;;;;;;;21.21;42.18;102322.13;10413921;28;20420;-78
2022/05/27 14:09:57;;;;;;;11.77;4.00;;;;;;;19.99;45.11;102333.09;10415077;28;20033;-77
2022/05/27 14:14:59;;;;;;;10.63;2.83;;;;;;;20.53;43.37;102339.75;10413451;28;20033;-77
2022/05/27 14:20:04;;;;;;;10.75;3.05;;;;;;;20.08;44.49;102347.41;10412623;28;20030;-78
2022/05/27 14:25:11;;;;;;;11.40;3.38;;;;;;;19.09;45.12;102337.94;10396590;28;20036;-77
2022/05/27 14:30:15;;;;;;;11.93;3.53;;;;;;;19.18;45.38;102344.88;10419009;28;20436;-78
2022/05/27 14:35:23;;;;;;;9.35;3.47;;;;;;;19.09;46.34;102343.44;10422581;28;20103;-76
2022/05/27 14:40:55;;;;;;;10.35;2.22;;;;;;;19.59;47.24;102347.13;10421272;28;20087;-76
2022/05/27 14:45:55;;;;;;;8.68;3.17;;;;;;;19.03;47.95;102345.13;10416083;28;20033;-75
2022/05/27 14:50:56;;;;;;;9.70;3.17;;;;;;;18.74;47.89;102350.13;10404127;28;20068;-76
2022/05/27 14:55:57;;;;;;;4.15;2.05;;;;;;;18.81;47.06;102355.59;10421669;28;20388;-76
2022/05/27 15:00:58;;;;;;;9.68;3.03;;;;;;;19.00;46.48;102340.09;10422126;28;20057;-77
2022/05/27 15:06:24;;;;;;;2.10;1.95;;;;;;;19.01;47.80;102345.34;10402627;28;20033;-77
2022/05/27 15:11:25;;;;;;;8.50;3.23;;;;;;;19.02;46.00;102351.69;10419339;28;20108;-77
2022/05/27 15:16:29;;;;;;;4.38;2.38;;;;;;;19.13;46.95;102348.25;10421121;28;20072;-77
2022/05/27 15:21:35;;;;;;;3.08;2.53;;;;;;;19.00;45.43;102329.94;10419182;28;20108;-78
2022/05/27 15:37:21;;;;;;;3.60;2.47;;;;;;;18.28;46.89;102331.88;10419204;28;20481;-78
2022/05/27 15:42:24;;;;;;;5.60;2.92;;;;;;;18.51;49.11;102325.06;10420127;28;20033;-77
2022/05/27 15:47:24;;;;;;;4.28;2.45;;;;;;;18.65;47.23;102312.97;10418774;28;20029;-77
2022/05/27 15:52:25;;;;;;;7.15;2.70;;;;;;;18.57;49.09;102319.53;10400501;28;20089;-77
2022/05/27 15:57:25;;;;;;;12.45;2.42;;;;;;;18.49;49.10;102305.22;10418347;28;20042;-77
2022/05/27 16:02:26;;;;;;;6.10;2.70;;;;;;;18.44;49.54;102305.88;10417606;28;20400;-77
2022/05/27 16:07:26;;;;;;;6.53;2.80;;;;;;;18.33;48.92;102301.88;10401216;28;20132;-77
2022/05/27 16:12:26;;;;;;;7.93;2.90;;;;;;;18.22;48.99;102318.13;10417830;28;20026;-77
2022/05/27 16:22:46;;;;;;;9.05;3.40;;;;;;;17.23;50.56;102303.38;10401591;28;20037;-77
2022/05/27 16:27:46;;;;;;;13.13;2.75;;;;;;;16.86;51.33;102311.06;10417110;28;20041;-77
2022/05/27 16:32:47;;;;;;;6.15;2.92;;;;;;;16.57;52.12;102306.69;10416875;28;20029;-77
2022/05/27 16:37:48;;;;;;;4.53;1.55;;;;;;;16.39;52.91;102315.41;10418251;28;20526;-77
2022/05/27 16:42:48;;;;;;;7.07;2.42;;;;;;;16.24;52.91;102315.56;10401030;28;20037;-77
2022/05/27 16:47:48;;;;;;;9.82;2.72;;;;;;;16.12;53.97;102325.34;10415324;28;20061;-76
2022/05/27 16:52:49;;;;;;;9.88;2.63;;;;;;;16.06;53.85;102330.78;10397750;28;20481;-77
2022/05/27 16:57:49;;;;;;;7.78;3.15;;;;;;;15.86;55.49;102319.66;10399282;28;20108;-77
2022/05/27 17:02:50;;;;;;;4.70;3.03;;;;;;;15.71;55.76;102327.97;10399474;28;20120;-76
2022/05/27 17:07:51;;;;;;;11.48;3.05;;;;;;;15.72;55.11;102318.72;10397977;28;20052;-76
2022/05/27 17:12:52;;;;;;;10.45;3.08;;;;;;;15.74;55.39;102325.69;10383871;28;20077;-76
2022/05/27 17:17:52;;;;;;;0.93;0.93;;;;;;;15.58;56.32;102317.75;10416022;28;20029;-77
2022/05/27 17:22:53;;;;;;;10.10;2.80;;;;;;;15.75;56.26;102324.63;10416459;28;20037;-76
2022/05/27 17:27:54;;;;;;;4.68;2.53;;;;;;;15.71;56.95;102327.97;10398736;28;20385;-76
2022/05/27 17:32:54;;;;;;;6.63;2.30;;;;;;;15.41;56.15;102336.28;10416135;28;20053;-76
2022/05/27 17:37:54;;;;;;;10.88;3.50;;;;;;;15.18;57.56;102327.41;10397719;28;20063;-77
2022/05/27 17:42:55;;;;;;;10.32;2.95;;;;;;;15.08;57.66;102328.56;10416972;28;20037;-77
2022/05/27 17:53:14;;;;;;;4.97;3.15;;;;;;;14.85;58.79;102319.69;10414648;28;20041;-77
2022/05/27 17:58:15;;;;;;;10.23;3.33;;;;;;;14.56;60.14;102324.16;10415661;28;20033;-76
2022/05/27 18:03:16;;;;;;;6.85;3.28;;;;;;;14.56;60.43;102318.69;10416243;28;20083;-76
2022/05/27 18:08:17;;;;;;;9.07;2.60;;;;;;;14.70;59.32;102316.97;10421818;28;20192;-76
2022/05/27 18:13:18;;;;;;;7.85;2.55;;;;;;;14.69;59.81;102322.63;10422196;28;20033;-77
2022/05/27 18:18:18;;;;;;;11.80;6.05;;;;;;;14.67;60.13;102319.25;10421257;28;20033;-77
2022/05/27 18:23:19;;;;;;;10.07;2.58;;;;;;;14.82;60.36;102322.81;10421719;28;20443;-76
2022/05/27 18:28:19;;;;;;;5.65;2.40;;;;;;;14.89;61.91;102321.00;10403515;28;20099;-76
2022/05/27 18:33:20;;;;;;;12.45;2.92;;;;;;;15.14;60.55;102332.41;10387152;28;20083;-75
2022/05/27 18:38:20;;;;;;;9.43;4.07;;;;;;;15.04;59.70;102327.25;10423042;28;20061;-78
2022/05/27 18:43:20;;;;;;;3.15;2.55;;;;;;;14.82;61.20;102334.56;10422091;28;20082;-77
2022/05/27 18:48:21;;;;;;;12.52;3.53;;;;;;;14.74;61.23;102326.50;10404390;28;20065;-77
2022/05/27 18:53:21;;;;;;;8.32;2.53;;;;;;;14.59;60.98;102326.50;10420558;28;20531;-77
2022/05/27 18:58:22;;;;;;;3.60;2.97;;;;;;;14.34;61.31;102325.91;10420402;28;20040;-77
2022/05/27 19:03:23;;;;;;;10.77;3.50;;;;;;;14.22;62.32;102321.09;10402703;28;20045;-77
2022/05/27 19:08:24;;;;;;;9.20;4.05;;;;;;;14.22;64.12;102316.50;10403579;28;20037;-77
2022/05/27 19:13:29;;;;;;;5.18;2.97;;;;;;;14.35;64.07;102322.13;10420274;28;20052;-78
2022/05/27 19:23:51;;;;;;;8.50;4.20;;;;;;;14.28;63.40;102323.09;10418977;28;20034;-77
2022/05/27 19:28:52;;;;;;;14.75;4.43;;;;;;;14.00;64.08;102309.25;10418137;28;20416;-77
2022/05/27 19:33:52;;;;;;;7.88;2.97;;;;;;;13.76;64.33;102315.78;10401767;28;20037;-78
2022/05/27 19:38:53;;;;;;;9.20;3.45;;;;;;;13.60;64.09;102311.34;10421379;28;20140;-77
2022/05/27 19:43:53;;;;;;;8.55;3.72;;;;;;;13.46;66.19;102308.38;10418669;28;20045;-76
2022/05/27 19:48:55;;;;;;;12.40;3.55;;;;;;;13.40;65.37;102321.84;10417532;28;20076;-77
2022/05/27 19:53:57;;;;;;;6.57;4.03;;;;;;;13.26;64.59;102318.88;10418991;28;20239;-77
2022/05/27 20:09:35;;;;;;;11.50;3.88;;;;;;;13.05;67.40;102326.81;10418476;28;20073;-77
2022/05/27 20:14:36;;;;;;;9.27;2.97;;;;;;;13.01;66.96;102318.16;10418315;28;20473;-77
2022/05/27 20:19:36;;;;;;;14.95;3.10;;;;;;;12.95;65.90;102321.59;10419995;28;20052;-77
2022/05/27 20:24:37;;;;;;;18.25;3.75;;;;;;;12.79;65.74;102316.22;10423097;28;20029;-77
2022/05/27 20:29:37;;;;;;;9.93;4.75;;;;;;;12.66;66.68;102316.81;10418663;28;20449;-77
2022/05/27 20:34:38;;;;;;;11.10;4.38;;;;;;;12.61;68.77;102304.78;10400141;28;20061;-77
2022/05/27 20:39:41;;;;;;;11.00;5.40;;;;;;;12.58;67.76;102311.41;10417509;28;20036;-78
2022/05/27 20:44:42;;;;;;;16.58;6.72;;;;;;;12.50;67.94;102315.00;10416938;28;20036;-76
2022/05/27 20:49:42;;;;;;;16.70;5.70;;;;;;;12.40;68.68;102314.38;10398417;28;20041;-77
2022/05/27 20:54:42;;;;;;;10.63;3.75;;;;;;;12.36;69.89;102313.03;10415903;28;20095;-77
2022/05/27 20:59:43;;;;;;;11.32;4.57;;;;;;;12.35;70.91;102308.63;10416478;28;20049;-77
2022/05/27 21:04:45;;;;;;;13.27;4.72;;;;;;;12.34;69.52;102315.06;10399021;28;20069;-77
2022/05/27 21:09:49;;;;;;;8.23;3.13;;;;;;;12.23;70.02;102308.16;10398186;28;20118;-78
2022/05/27 21:14:49;;;;;;;11.02;3.58;;;;;;;12.18;71.57;102307.81;10417667;28;20042;-77
2022/05/27 21:19:49;;;;;;;10.95;4.45;;;;;;;12.17;71.96;102302.56;10399052;28;20061;-77
2022/05/27 21:24:50;;;;;;;6.57;4.60;;;;;;;12.08;71.08;102297.13;10415042;28;20469;-77
2022/05/27 21:29:50;;;;;;;13.32;3.65;;;;;;;12.11;71.86;102293.22;10415255;28;20444;-77
2022/05/27 21:34:51;;;;;;;6.50;3.05;;;;;;;12.08;71.48;102293.56;10414894;28;20053;-78
2022/05/27 21:39:51;;;;;;;7.22;3.85;;;;;;;12.06;72.12;102290.19;10420611;28;20038;-76
2022/05/27 21:44:51;;;;;;;16.35;3.75;;;;;;;12.04;73.79;102284.09;10424715;28;20034;-76
2022/05/27 21:49:52;;;;;;;15.75;4.15;;;;;;;12.00;73.83;102272.75;10405723;28;20389;-77
2022/05/27 21:54:53;;;;;;;12.25;3.72;;;;;;;12.02;73.23;102280.69;10422926;28;20108;-77
2022/05/27 21:59:54;;;;;;;10.02;3.70;;;;;;;12.12;72.92;102289.47;10421657;28;20025;-77
2022/05/27 22:04:54;;;;;;;7.10;3.00;;;;;;;12.19;74.23;102286.91;10421805;28;20040;-75
2022/05/27 22:15:13;;;;;;;24.40;4.70;;;;;;;12.74;76.93;102286.88;10421681;28;20034;-76
2022/05/27 22:20:14;;;;;;;10.15;2.50;;;;;;;13.01;76.03;102276.53;10421673;28;20034;-76
2022/05/27 22:25:14;;;;;;;15.02;3.50;;;;;;;13.08;75.11;102274.78;10404221;28;20037;-76
2022/05/27 22:30:15;;;;;;;14.55;3.88;;;;;;;12.95;74.89;102269.91;10404068;28;20041;-76
2022/05/27 22:35:16;;;;;;;9.15;3.45;;;;;;;12.88;74.04;102268.94;10421589;28;20469;-76
2022/05/27 22:40:17;;;;;;;4.32;3.30;;;;;;;12.74;75.30;102256.97;10421424;28;20095;-76
2022/05/27 22:45:19;;;;;;;16.73;3.00;;;;;;;12.79;76.65;102253.72;10422460;28;20049;-76
2022/05/27 22:50:19;;;;;;;6.95;2.85;;;;;;;12.96;76.54;102259.91;10421120;28;20033;-76
2022/05/27 22:55:20;;;;;;;13.98;3.05;;;;;;;13.19;78.37;102257.19;10404037;28;20038;-76
2022/05/27 23:00:20;;;;;;;4.53;2.80;;;;;;;13.36;78.04;102253.34;10420636;28;20140;-77
2022/05/27 23:05:21;;;;;;;11.07;2.72;;;;;;;13.52;77.50;102251.50;10419409;28;20039;-76
2022/05/27 23:10:21;;;;;;;12.98;2.38;;;;;;;13.56;76.65;102240.09;10403265;28;20037;-76
2022/05/27 23:20:40;;;;;;;4.15;2.88;;;;;;;13.53;78.47;102235.00;10419887;28;20060;-77
2022/05/27 23:25:46;;;;;;;8.20;2.38;;;;;;;13.42;78.94;102232.72;10420335;28;20065;-76
2022/05/27 23:30:46;;;;;;;6.53;2.70;;;;;;;13.21;78.73;102234.22;10420607;28;20045;-75
2022/05/27 23:35:47;;;;;;;9.23;3.42;;;;;;;12.94;77.70;102218.44;10418984;28;20509;-76
2022/05/27 23:40:47;;;;;;;12.18;3.25;;;;;;;12.82;79.26;102219.91;10401618;28;20331;-76
2022/05/27 23:45:48;;;;;;;16.08;3.00;;;;;;;12.91;83.37;102225.09;10418990;28;20025;-76
2022/05/27 23:50:49;;;;;;;6.68;3.20;;;;;;;13.08;83.75;102225.84;10418733;28;20033;-76
2022/05/27 23:55:49;;;;;;;9.80;2.78;;;;;;;13.21;84.87;102220.63;10401445;28;20068;-76
